createdAt,value
2019-04-29T00:01:40.508Z,100770.48
2019-04-29T00:04:11.434Z,100775.53
2019-04-29T00:06:42.126Z,100774.99
2019-04-29T00:09:17.819Z,100775.43
2019-04-29T00:11:48.577Z,100772.66
2019-04-29T00:14:19.522Z,100771.13
2019-04-29T00:16:50.053Z,100771.33
2019-04-29T00:19:25.023Z,100768.91
2019-04-29T00:21:55.976Z,100767.74
2019-04-29T00:24:26.914Z,100766.00
2019-04-29T00:26:57.602Z,100759.91
2019-04-29T00:29:29.256Z,100765.34
2019-04-29T00:31:59.965Z,100761.35
2019-04-29T00:34:31.031Z,100766.13
2019-04-29T00:37:03.546Z,100775.33
2019-04-29T00:39:52.215Z,100772.95
2019-04-29T00:42:30.210Z,100783.02
2019-04-29T00:45:00.930Z,100772.67
2019-04-29T00:47:31.691Z,100778.59
2019-04-29T00:50:02.441Z,100777.75
2019-04-29T00:52:34.200Z,100764.52
2019-04-29T00:55:07.647Z,100761.02
2019-04-29T00:57:38.326Z,100768.55
2019-04-29T01:00:12.647Z,100772.60
2019-04-29T01:02:43.583Z,100773.88
2019-04-29T01:05:14.496Z,100764.13
2019-04-29T01:07:45.170Z,100770.62
2019-04-29T01:10:16.401Z,100775.87
2019-04-29T01:12:47.075Z,100769.84
2019-04-29T01:15:17.947Z,100763.91
2019-04-29T01:17:49.059Z,100756.96
2019-04-29T01:20:19.792Z,100750.95
2019-04-29T01:22:50.768Z,100753.43
2019-04-29T01:25:21.573Z,100751.31
2019-04-29T01:28:02.313Z,100747.03
2019-04-29T01:31:00.951Z,100747.27
2019-04-29T01:33:31.970Z,100749.98
2019-04-29T01:36:15.654Z,100747.03
2019-04-29T01:38:51.047Z,100751.70
2019-04-29T01:41:23.610Z,100754.59
2019-04-29T01:44:01.908Z,100748.98
2019-04-29T01:46:32.930Z,100753.48
2019-04-29T01:49:03.862Z,100754.59
2019-04-29T01:51:35.247Z,100742.38
2019-04-29T01:54:06.560Z,100741.00
2019-04-29T01:56:37.834Z,100735.79
2019-04-29T01:59:08.978Z,100741.00
2019-04-29T02:01:39.885Z,100733.36
2019-04-29T02:04:10.537Z,100737.53
2019-04-29T02:06:41.220Z,100733.73
2019-04-29T02:09:16.830Z,100731.56
2019-04-29T02:11:47.886Z,100732.34
2019-04-29T02:14:19.016Z,100736.50
2019-04-29T02:16:49.727Z,100739.10
2019-04-29T02:19:20.463Z,100734.20
2019-04-29T02:22:08.392Z,100724.89
2019-04-29T02:24:47.534Z,100720.78
2019-04-29T02:27:18.228Z,100717.70
2019-04-29T02:29:48.951Z,100716.62
2019-04-29T02:32:19.980Z,100713.71
2019-04-29T02:34:50.686Z,100710.69
2019-04-29T02:37:23.413Z,100707.36
2019-04-29T02:40:04.949Z,100712.39
2019-04-29T02:42:39.938Z,100714.33
2019-04-29T02:45:16.459Z,100713.42
2019-04-29T02:47:47.122Z,100711.11
2019-04-29T02:50:18.356Z,100714.07
2019-04-29T02:52:49.007Z,100702.78
2019-04-29T02:55:21.664Z,100698.30
2019-04-29T02:57:56.744Z,100697.05
2019-04-29T03:00:36.523Z,100691.71
2019-04-29T03:03:08.826Z,100690.52
2019-04-29T03:05:41.223Z,100687.86
2019-04-29T03:08:11.984Z,100692.14
2019-04-29T03:10:43.042Z,100691.71
2019-04-29T03:13:13.768Z,100687.41
2019-04-29T03:15:45.129Z,100689.00
2019-04-29T03:18:16.804Z,100687.42
2019-04-29T03:20:57.900Z,100685.49
2019-04-29T03:23:28.668Z,100686.58
2019-04-29T03:25:59.344Z,100681.91
2019-04-29T03:28:31.393Z,100680.48
2019-04-29T03:31:02.079Z,100680.64
2019-04-29T03:33:32.868Z,100679.31
2019-04-29T03:36:03.558Z,100668.13
2019-04-29T03:38:34.235Z,100663.48
2019-04-29T03:41:05.264Z,100669.23
2019-04-29T03:43:35.931Z,100673.64
2019-04-29T03:46:06.688Z,100668.50
2019-04-29T03:48:37.459Z,100676.23
2019-04-29T03:51:08.390Z,100669.34
2019-04-29T03:53:39.142Z,100673.83
2019-04-29T03:56:10.091Z,100673.98
2019-04-29T03:58:40.743Z,100666.39
2019-04-29T04:01:19.036Z,100659.47
2019-04-29T04:03:51.618Z,100660.63
2019-04-29T04:06:24.218Z,100660.85
2019-04-29T04:09:05.486Z,100655.63
2019-04-29T04:11:29.173Z,100643.34
2019-04-29T04:14:00.638Z,100659.22
2019-04-29T04:16:33.001Z,100666.74
2019-04-29T04:19:07.483Z,100662.80
2019-04-29T04:21:38.456Z,100660.50
2019-04-29T04:24:09.383Z,100652.41
2019-04-29T04:26:40.119Z,100649.72
2019-04-29T04:29:10.779Z,100648.98
2019-04-29T04:31:41.541Z,100650.50
2019-04-29T04:34:12.488Z,100649.57
2019-04-29T04:36:43.271Z,100646.52
2019-04-29T04:39:13.956Z,100645.91
2019-04-29T04:41:51.127Z,100639.60
2019-04-29T04:44:17.697Z,100638.77
2019-04-29T04:46:48.758Z,100632.02
2019-04-29T04:49:20.099Z,100622.30
2019-04-29T04:51:52.885Z,100618.23
2019-04-29T04:54:25.581Z,100624.52
2019-04-29T04:56:57.310Z,100626.83
2019-04-29T04:59:29.631Z,100620.08
2019-04-29T05:02:01.035Z,100625.41
2019-04-29T05:04:31.705Z,100626.30
2019-04-29T05:07:02.868Z,100626.41
2019-04-29T05:09:35.872Z,100619.71
2019-04-29T05:12:06.840Z,100618.08
2019-04-29T05:14:37.704Z,100604.03
2019-04-29T05:17:11.792Z,100610.84
2019-04-29T05:19:47.927Z,100608.31
2019-04-29T05:22:18.623Z,100610.15
2019-04-29T05:24:49.294Z,100604.72
2019-04-29T05:27:20.728Z,100606.48
2019-04-29T05:29:51.794Z,100611.62
2019-04-29T05:32:23.059Z,100607.77
2019-04-29T05:34:55.651Z,100617.14
2019-04-29T05:37:37.138Z,100620.88
2019-04-29T05:40:07.961Z,100621.32
2019-04-29T05:42:38.948Z,100613.77
2019-04-29T05:45:16.884Z,100603.30
2019-04-29T05:47:52.299Z,100601.87
2019-04-29T05:50:39.399Z,100600.52
2019-04-29T05:53:18.179Z,100592.23
2019-04-29T05:55:52.533Z,100598.22
2019-04-29T05:58:22.795Z,100591.95
2019-04-29T06:00:55.601Z,100595.46
2019-04-29T06:03:33.491Z,100588.92
2019-04-29T06:06:06.605Z,100596.90
2019-04-29T06:08:39.315Z,100597.75
2019-04-29T06:11:10.260Z,100591.41
2019-04-29T06:13:40.990Z,100596.42
2019-04-29T06:16:15.850Z,100601.44
2019-04-29T06:18:44.609Z,100601.42
2019-04-29T06:21:18.211Z,100596.43
2019-04-29T06:23:48.934Z,100600.84
2019-04-29T06:26:20.021Z,100612.25
2019-04-29T06:28:51.063Z,100604.34
2019-04-29T06:31:21.739Z,100617.63
2019-04-29T06:33:52.945Z,100623.87
2019-04-29T06:36:23.891Z,100632.34
2019-04-29T06:38:55.108Z,100633.92
2019-04-29T06:41:26.169Z,100623.66
2019-04-29T06:44:00.645Z,100625.86
2019-04-29T06:46:29.576Z,100631.03
2019-04-29T06:49:10.171Z,100628.86
2019-04-29T06:51:32.982Z,100622.06
2019-04-29T06:54:03.932Z,100612.69
2019-04-29T06:56:34.632Z,100606.77
2019-04-29T06:59:07.583Z,100602.72
2019-04-29T07:01:38.727Z,100601.61
2019-04-29T07:04:10.031Z,100595.45
2019-04-29T07:06:41.066Z,100595.66
2019-04-29T07:09:11.736Z,100590.98
2019-04-29T07:11:42.701Z,100592.09
2019-04-29T07:14:13.679Z,100588.66
2019-04-29T07:16:44.654Z,100600.89
2019-04-29T07:19:15.647Z,100582.51
2019-04-29T07:21:47.427Z,100578.23
2019-04-29T07:24:20.450Z,100567.16
2019-04-29T07:26:51.316Z,100565.30
2019-04-29T07:29:29.670Z,100550.99
2019-04-29T07:31:54.418Z,100551.34
2019-04-29T07:34:29.001Z,100553.88
2019-04-29T07:36:59.392Z,100542.41
2019-04-29T07:39:33.497Z,100542.47
2019-04-29T07:42:04.372Z,100542.31
2019-04-29T07:44:44.288Z,100554.62
2019-04-29T07:47:09.702Z,100563.08
2019-04-29T07:49:40.380Z,100587.20
2019-04-29T07:52:14.503Z,100613.77
2019-04-29T07:54:43.446Z,100618.98
2019-04-29T07:57:16.453Z,100623.19
2019-04-29T07:59:46.846Z,100617.23
2019-04-29T08:02:17.823Z,100605.48
2019-04-29T08:04:48.494Z,100584.52
2019-04-29T08:07:20.064Z,100560.73
2019-04-29T08:09:52.632Z,100554.39
2019-04-29T08:12:27.051Z,100554.97
2019-04-29T08:15:07.634Z,100551.41
2019-04-29T08:17:33.774Z,100550.82
2019-04-29T08:20:06.470Z,100553.35
2019-04-29T08:22:37.440Z,100564.75
2019-04-29T08:25:09.533Z,100562.13
2019-04-29T08:27:43.607Z,100557.82
2019-04-29T08:30:13.560Z,100545.16
2019-04-29T08:32:44.265Z,100527.03
2019-04-29T08:35:15.371Z,100501.38
2019-04-29T08:37:47.234Z,100510.55
2019-04-29T08:40:18.630Z,100493.12
2019-04-29T08:42:51.278Z,100494.50
2019-04-29T08:45:39.071Z,100491.63
2019-04-29T08:48:10.967Z,100495.62
2019-04-29T08:50:41.707Z,100484.39
2019-04-29T08:53:12.435Z,100490.38
2019-04-29T08:55:43.120Z,100479.70
2019-04-29T08:58:13.787Z,100483.20
2019-04-29T09:00:44.986Z,100488.70
2019-04-29T09:03:18.769Z,100496.73
2019-04-29T09:06:04.366Z,100485.31
2019-04-29T09:08:20.551Z,100490.08
2019-04-29T09:10:51.355Z,100481.98
2019-04-29T09:13:22.026Z,100484.23
2019-04-29T09:15:52.746Z,100484.23
2019-04-29T09:18:23.425Z,100478.55
2019-04-29T09:20:54.420Z,100476.63
2019-04-29T09:23:27.101Z,100466.66
2019-04-29T09:26:11.456Z,100462.91
2019-04-29T09:28:42.393Z,100462.51
2019-04-29T09:31:14.326Z,100467.82
2019-04-29T09:33:49.067Z,100499.14
2019-04-29T09:36:17.368Z,100513.20
2019-04-29T09:38:48.096Z,100532.77
2019-04-29T09:41:23.438Z,100551.01
2019-04-29T09:43:53.947Z,100565.85
2019-04-29T09:46:30.093Z,100579.98
2019-04-29T09:48:58.925Z,100601.78
2019-04-29T09:51:29.808Z,100593.39
2019-04-29T09:54:00.669Z,100593.03
2019-04-29T09:56:34.565Z,100592.61
2019-04-29T09:59:23.622Z,100578.06
2019-04-29T10:02:05.389Z,100559.59
2019-04-29T10:04:41.016Z,100517.85
2019-04-29T10:07:13.722Z,100493.23
2019-04-29T10:09:56.500Z,100480.84
2019-04-29T10:12:17.405Z,100482.34
2019-04-29T10:14:49.652Z,100471.02
2019-04-29T10:17:23.053Z,100463.48
2019-04-29T10:20:01.866Z,100462.14
2019-04-29T10:22:34.977Z,100466.19
2019-04-29T10:25:07.607Z,100455.33
2019-04-29T10:27:38.589Z,100432.38
2019-04-29T10:30:10.139Z,100448.73
2019-04-29T10:32:42.367Z,100460.61
2019-04-29T10:35:14.104Z,100464.25
2019-04-29T10:37:45.100Z,100472.52
2019-04-29T10:40:31.106Z,100467.20
2019-04-29T10:43:15.387Z,100462.12
2019-04-29T10:46:02.204Z,100456.28
2019-04-29T10:48:35.687Z,100457.94
2019-04-29T10:51:08.536Z,100465.11
2019-04-29T10:53:39.569Z,100470.86
2019-04-29T10:56:10.731Z,100472.48
2019-04-29T10:58:41.654Z,100463.53
2019-04-29T11:01:44.963Z,100466.81
2019-04-29T11:04:15.875Z,100468.31
2019-04-29T11:06:46.656Z,100474.41
2019-04-29T11:09:25.317Z,100469.48
2019-04-29T11:11:56.310Z,100474.70
2019-04-29T11:14:27.250Z,100467.22
2019-04-29T11:16:57.953Z,100453.88
2019-04-29T11:19:29.399Z,100457.78
2019-04-29T11:22:03.169Z,100445.77
2019-04-29T11:24:39.618Z,100454.42
2019-04-29T11:27:20.889Z,100449.38
2019-04-29T11:29:52.009Z,100457.40
2019-04-29T11:32:30.832Z,100453.24
2019-04-29T11:35:06.251Z,100454.73
2019-04-29T11:37:37.297Z,100445.50
2019-04-29T11:40:08.530Z,100440.84
2019-04-29T11:42:41.796Z,100435.88
2019-04-29T11:45:13.861Z,100435.48
2019-04-29T11:47:44.617Z,100436.94
2019-04-29T11:50:22.979Z,100442.19
2019-04-29T11:52:55.576Z,100435.58
2019-04-29T11:55:26.282Z,100446.73
2019-04-29T11:58:04.528Z,100450.91
2019-04-29T12:00:53.319Z,100452.77
2019-04-29T12:03:25.905Z,100444.52
2019-04-29T12:05:58.290Z,100442.91
2019-04-29T12:08:29.041Z,100448.38
2019-04-29T12:11:07.209Z,100440.27
2019-04-29T12:13:37.698Z,100439.12
2019-04-29T12:16:13.084Z,100442.88
2019-04-29T12:19:00.929Z,100438.09
2019-04-29T12:21:33.766Z,100429.85
2019-04-29T12:24:06.860Z,100432.25
2019-04-29T12:26:43.169Z,100431.98
2019-04-29T12:29:13.704Z,100436.14
2019-04-29T12:32:03.364Z,100438.89
2019-04-29T12:34:50.600Z,100438.05
2019-04-29T12:37:25.658Z,100434.42
2019-04-29T12:40:14.440Z,100442.44
2019-04-29T12:42:48.867Z,100439.96
2019-04-29T12:45:21.592Z,100432.91
2019-04-29T12:47:52.739Z,100433.78
2019-04-29T12:50:23.644Z,100433.88
2019-04-29T12:52:54.766Z,100431.75
2019-04-29T12:55:44.267Z,100417.83
2019-04-29T12:58:02.798Z,100407.61
2019-04-29T13:00:47.859Z,100411.04
2019-04-29T13:03:25.468Z,100410.37
2019-04-29T13:06:14.017Z,100411.78
2019-04-29T13:08:46.329Z,100411.35
2019-04-29T13:11:19.060Z,100413.03
2019-04-29T13:13:51.500Z,100414.14
2019-04-29T13:16:26.995Z,100410.33
2019-04-29T13:19:10.814Z,100409.12
2019-04-29T13:21:30.115Z,100401.59
2019-04-29T13:24:13.435Z,100400.82
2019-04-29T13:26:36.940Z,100395.28
2019-04-29T13:29:06.177Z,100393.19
2019-04-29T13:31:39.217Z,100386.67
2019-04-29T13:34:23.509Z,100393.85
2019-04-29T13:36:43.309Z,100391.51
2019-04-29T13:39:14.300Z,100390.07
2019-04-29T13:41:57.085Z,100383.14
2019-04-29T13:44:19.649Z,100382.16
2019-04-29T13:47:01.713Z,100381.66
2019-04-29T13:49:40.299Z,100390.11
2019-04-29T13:52:11.959Z,100398.16
2019-04-29T13:54:44.296Z,100405.38
2019-04-29T13:57:16.157Z,100398.69
2019-04-29T13:59:59.040Z,100398.09
2019-04-29T14:02:37.492Z,100396.41
2019-04-29T14:05:11.043Z,100388.80
2019-04-29T14:07:41.711Z,100384.61
2019-04-29T14:10:14.983Z,100384.61
2019-04-29T14:12:49.025Z,100383.59
2019-04-29T14:15:18.828Z,100382.64
2019-04-29T14:17:49.518Z,100383.80
2019-04-29T14:20:20.626Z,100381.34
2019-04-29T14:22:51.623Z,100385.72
2019-04-29T14:25:22.706Z,100386.38
2019-04-29T14:27:53.390Z,100389.05
2019-04-29T14:30:38.025Z,100385.34
2019-04-29T14:33:01.817Z,100379.00
2019-04-29T14:35:36.374Z,100376.16
2019-04-29T14:38:07.372Z,100378.51
2019-04-29T14:40:41.167Z,100378.40
2019-04-29T14:43:31.612Z,100379.06
2019-04-29T14:46:15.934Z,100370.47
2019-04-29T14:48:49.052Z,100374.66
2019-04-29T14:51:20.078Z,100375.65
2019-04-29T14:53:56.650Z,100375.67
2019-04-29T14:56:23.159Z,100375.70
2019-04-29T14:59:06.006Z,100375.13
2019-04-29T15:01:30.886Z,100375.84
2019-04-29T15:04:17.332Z,100371.06
2019-04-29T15:06:36.198Z,100380.94
2019-04-29T15:09:16.651Z,100376.37
2019-04-29T15:11:58.639Z,100378.70
2019-04-29T15:14:39.696Z,100384.52
2019-04-29T15:17:14.937Z,100384.30
2019-04-29T15:19:55.690Z,100386.06
2019-04-29T15:22:30.835Z,100385.08
2019-04-29T15:25:02.489Z,100387.64
2019-04-29T15:27:33.461Z,100390.45
2019-04-29T15:30:07.354Z,100397.81
2019-04-29T15:32:38.381Z,100396.18
2019-04-29T15:35:09.551Z,100399.37
2019-04-29T15:37:40.218Z,100404.38
2019-04-29T15:40:11.759Z,100404.66
2019-04-29T15:42:46.275Z,100405.66
2019-04-29T15:45:16.053Z,100403.33
2019-04-29T15:47:47.258Z,100408.22
2019-04-29T15:50:19.514Z,100408.05
2019-04-29T15:52:50.603Z,100407.84
2019-04-29T15:55:21.648Z,100406.83
2019-04-29T15:57:53.122Z,100407.13
2019-04-29T16:00:24.969Z,100414.23
2019-04-29T16:02:56.593Z,100415.71
2019-04-29T16:06:11.050Z,100416.37
2019-04-29T16:08:37.705Z,100419.61
2019-04-29T16:11:11.390Z,100412.36
2019-04-29T16:13:47.756Z,100410.03
2019-04-29T16:16:14.928Z,100413.70
2019-04-29T16:18:45.894Z,100412.28
2019-04-29T16:21:16.646Z,100419.38
2019-04-29T16:23:47.331Z,100408.56
2019-04-29T16:26:18.065Z,100415.91
2019-04-29T16:28:49.517Z,100406.69
2019-04-29T16:31:21.679Z,100409.56
2019-04-29T16:33:54.634Z,100412.23
2019-04-29T16:36:25.018Z,100413.49
2019-04-29T16:38:56.038Z,100413.07
2019-04-29T16:41:28.352Z,100408.09
2019-04-29T16:43:59.348Z,100412.92
2019-04-29T16:46:37.436Z,100409.76
2019-04-29T16:49:06.732Z,100409.42
2019-04-29T16:51:37.808Z,100404.61
2019-04-29T16:54:12.890Z,100411.09
2019-04-29T16:56:42.326Z,100406.78
2019-04-29T16:59:13.269Z,100401.36
2019-04-29T17:01:43.935Z,100407.05
2019-04-29T17:04:14.953Z,100408.06
2019-04-29T17:07:10.765Z,100408.61
2019-04-29T17:09:33.945Z,100409.95
2019-04-29T17:12:05.662Z,100405.14
2019-04-29T17:15:02.444Z,100404.45
2019-04-29T17:17:13.707Z,100398.79
2019-04-29T17:19:44.499Z,100398.11
2019-04-29T17:22:25.551Z,100397.13
2019-04-29T17:24:47.665Z,100396.84
2019-04-29T17:27:25.978Z,100397.52
2019-04-29T17:30:08.965Z,100408.20
2019-04-29T17:35:19.354Z,100401.49
2019-04-29T17:35:21.824Z,100402.84
2019-04-29T17:37:51.561Z,100402.52
2019-04-29T17:40:24.147Z,100399.98
2019-04-29T17:43:00.842Z,100401.98
2019-04-29T17:45:42.882Z,100408.17
2019-04-29T17:48:18.342Z,100406.02
2019-04-29T17:50:59.021Z,100416.55
2019-04-29T17:53:32.234Z,100409.41
2019-04-29T17:56:21.256Z,100417.86
2019-04-29T17:58:57.802Z,100419.72
2019-04-29T18:01:42.592Z,100420.55
2019-04-29T18:04:19.967Z,100418.89
2019-04-29T18:06:50.635Z,100408.41
2019-04-29T18:09:41.613Z,100410.23
2019-04-29T18:12:16.627Z,100422.59
2019-04-29T18:14:48.099Z,100419.55
2019-04-29T18:17:27.453Z,100415.23
2019-04-29T18:19:57.741Z,100419.59
2019-04-29T18:22:28.460Z,100421.40
2019-04-29T18:25:13.160Z,100421.56
2019-04-29T18:27:49.157Z,100426.07
2019-04-29T18:30:33.456Z,100427.38
2019-04-29T18:32:55.119Z,100427.05
2019-04-29T18:35:26.111Z,100424.94
2019-04-29T18:37:56.797Z,100427.95
2019-04-29T18:40:30.048Z,100425.56
2019-04-29T18:43:00.879Z,100424.25
2019-04-29T18:45:34.433Z,100423.59
2019-04-29T18:48:08.510Z,100429.94
2019-04-29T18:50:38.977Z,100438.89
2019-04-29T18:53:10.174Z,100435.58
2019-04-29T18:55:40.861Z,100439.23
2019-04-29T18:58:12.140Z,100442.39
2019-04-29T19:00:46.116Z,100440.26
2019-04-29T19:03:17.374Z,100447.95
2019-04-29T19:05:49.798Z,100441.58
2019-04-29T19:08:23.375Z,100448.78
2019-04-29T19:10:53.219Z,100448.30
2019-04-29T19:13:26.012Z,100448.28
2019-04-29T19:16:09.061Z,100446.65
2019-04-29T19:18:29.701Z,100447.80
2019-04-29T19:21:01.236Z,100445.59
2019-04-29T19:23:32.429Z,100443.62
2019-04-29T19:26:03.239Z,100446.96
2019-04-29T19:28:36.971Z,100437.14
2019-04-29T19:31:09.795Z,100447.47
2019-04-29T19:33:41.806Z,100449.12
2019-04-29T19:36:18.534Z,100451.27
2019-04-29T19:38:48.469Z,100444.28
2019-04-29T19:41:19.233Z,100451.27
2019-04-29T19:43:55.131Z,100451.62
2019-04-29T19:46:25.345Z,100452.60
2019-04-29T19:49:00.083Z,100454.30
2019-04-29T19:51:28.277Z,100458.98
2019-04-29T19:53:59.456Z,100456.93
2019-04-29T19:56:30.623Z,100451.64
2019-04-29T19:59:08.460Z,100453.63
2019-04-29T20:01:37.954Z,100448.59
2019-04-29T20:04:15.797Z,100454.12
2019-04-29T20:06:46.937Z,100456.44
2019-04-29T20:09:21.706Z,100456.60
2019-04-29T20:11:49.678Z,100462.66
2019-04-29T20:14:26.279Z,100450.95
2019-04-29T20:17:09.593Z,100449.36
2019-04-29T20:19:55.280Z,100460.06
2019-04-29T20:22:21.343Z,100460.34
2019-04-29T20:24:55.791Z,100461.98
2019-04-29T20:27:30.985Z,100462.22
2019-04-29T20:30:00.818Z,100463.01
2019-04-29T20:32:32.105Z,100472.38
2019-04-29T20:35:08.575Z,100466.71
2019-04-29T20:37:39.141Z,100472.88
2019-04-29T20:40:10.493Z,100468.88
2019-04-29T20:42:45.343Z,100470.87
2019-04-29T20:45:15.543Z,100476.21
2019-04-29T20:47:46.570Z,100475.73
2019-04-29T20:50:17.892Z,100474.39
2019-04-29T20:52:52.160Z,100475.22
2019-04-29T20:55:23.385Z,100473.69
2019-04-29T20:57:54.287Z,100473.38
2019-04-29T21:00:26.938Z,100477.49
2019-04-29T21:02:58.236Z,100481.68
2019-04-29T21:05:29.083Z,100473.03
2019-04-29T21:08:03.495Z,100467.02
2019-04-29T21:10:33.445Z,100473.08
2019-04-29T21:13:16.105Z,100471.55
2019-04-29T21:16:02.234Z,100474.71
2019-04-29T21:18:35.311Z,100478.52
2019-04-29T21:21:07.862Z,100479.70
2019-04-29T21:23:38.858Z,100475.69
2019-04-29T21:26:10.103Z,100475.36
2019-04-29T21:28:41.805Z,100482.73
2019-04-29T21:31:16.610Z,100480.73
2019-04-29T21:33:50.741Z,100478.41
2019-04-29T21:36:20.899Z,100478.55
2019-04-29T21:39:01.724Z,100481.37
2019-04-29T21:41:31.405Z,100483.39
2019-04-29T21:44:03.778Z,100482.72
2019-04-29T21:46:37.308Z,100477.37
2019-04-29T21:49:11.616Z,100482.72
2019-04-29T21:51:46.569Z,100481.68
2019-04-29T21:54:16.140Z,100481.66
2019-04-29T21:56:48.172Z,100488.06
2019-04-29T21:59:19.874Z,100478.72
2019-04-29T22:01:50.695Z,100482.88
2019-04-29T22:04:21.665Z,100484.56
2019-04-29T22:06:52.706Z,100478.70
2019-04-29T22:09:35.608Z,100478.13
2019-04-29T22:11:57.528Z,100486.31
2019-04-29T22:14:28.428Z,100486.62
2019-04-29T22:16:59.115Z,100490.21
2019-04-29T22:19:31.560Z,100491.42
2019-04-29T22:22:02.230Z,100495.22
2019-04-29T22:24:33.141Z,100494.86
2019-04-29T22:27:06.058Z,100500.02
2019-04-29T22:29:37.243Z,100502.81
2019-04-29T22:32:14.481Z,100505.73
2019-04-29T22:34:42.275Z,100502.78
2019-04-29T22:37:13.084Z,100504.72
2019-04-29T22:39:43.774Z,100504.70
2019-04-29T22:42:17.379Z,100503.56
2019-04-29T22:44:48.369Z,100504.40
2019-04-29T22:47:23.474Z,100506.23
2019-04-29T22:49:51.468Z,100511.01
2019-04-29T22:52:25.494Z,100517.53
2019-04-29T22:54:57.871Z,100516.34
2019-04-29T22:57:28.169Z,100517.35
2019-04-29T22:59:59.402Z,100521.32
2019-04-29T23:02:30.425Z,100520.07
2019-04-29T23:05:01.459Z,100530.20
2019-04-29T23:07:32.503Z,100524.06
2019-04-29T23:10:03.193Z,100519.97
2019-04-29T23:12:35.291Z,100518.78
2019-04-29T23:15:08.469Z,100513.59
2019-04-29T23:17:42.595Z,100525.05
2019-04-29T23:20:28.874Z,100510.78
2019-04-29T23:23:00.644Z,100514.77
2019-04-29T23:25:51.318Z,100520.95
2019-04-29T23:28:26.903Z,100520.50
2019-04-29T23:30:55.476Z,100514.65
2019-04-29T23:33:26.509Z,100513.81
2019-04-29T23:35:57.291Z,100511.91
2019-04-29T23:38:29.506Z,100512.48
2019-04-29T23:41:01.937Z,100515.58
2019-04-29T23:43:32.721Z,100512.72
2019-04-29T23:46:04.942Z,100517.09
2019-04-29T23:48:39.329Z,100510.73
2019-04-29T23:51:09.458Z,100513.22
2019-04-29T23:53:40.126Z,100508.47
2019-04-29T23:56:10.997Z,100507.63
2019-04-29T23:58:46.791Z,100507.63
